createdAt,value
2018-06-04T00:01:00.355Z,24.63
2018-06-04T00:06:03.558Z,26.60
2018-06-04T00:11:06.669Z,29.50
2018-06-04T00:16:09.769Z,28.73
2018-06-04T00:21:12.902Z,25.70
2018-06-04T00:26:16.382Z,29.50
2018-06-04T00:31:19.587Z,25.97
2018-06-04T00:36:23.002Z,26.70
2018-06-04T00:41:26.155Z,26.03
2018-06-04T00:46:29.257Z,29.50
2018-06-04T00:51:32.353Z,30.33
2018-06-04T00:56:35.494Z,25.90
2018-06-04T01:01:38.608Z,29.80
2018-06-04T01:06:41.720Z,28.47
2018-06-04T01:11:45.051Z,27.90
2018-06-04T01:16:48.598Z,26.97
2018-06-04T01:21:51.834Z,25.57
2018-06-04T01:26:55.215Z,24.40
2018-06-04T01:31:58.383Z,25.60
2018-06-04T01:37:01.532Z,29.57
2018-06-04T01:42:04.899Z,23.97
2018-06-04T01:47:09.053Z,23.17
2018-06-04T01:52:12.212Z,25.63
2018-06-04T01:57:15.519Z,22.60
2018-06-04T02:02:18.946Z,21.90
2018-06-04T02:07:22.503Z,23.77
2018-06-04T02:12:25.629Z,22.70
2018-06-04T02:17:28.881Z,22.20
2018-06-04T02:22:32.469Z,23.87
2018-06-04T02:27:35.581Z,27.03
2018-06-04T02:32:38.740Z,27.83
2018-06-04T02:37:43.180Z,30.47
2018-06-04T02:42:46.532Z,28.40
2018-06-04T02:47:50.350Z,27.03
2018-06-04T02:52:53.806Z,26.77
2018-06-04T02:57:56.956Z,25.97
2018-06-04T03:03:00.213Z,25.87
2018-06-04T03:08:03.396Z,28.33
2018-06-04T03:13:06.503Z,27.07
2018-06-04T03:18:09.633Z,26.53
2018-06-04T03:23:12.853Z,26.70
2018-06-04T03:28:16.114Z,24.60
2018-06-04T03:33:19.472Z,26.37
2018-06-04T03:38:22.760Z,23.67
2018-06-04T03:43:25.905Z,23.70
2018-06-04T03:48:29.095Z,22.50
2018-06-04T03:53:32.207Z,21.37
2018-06-04T03:58:35.317Z,20.63
2018-06-04T04:03:38.425Z,20.30
2018-06-04T04:08:41.527Z,17.33
2018-06-04T04:13:45.828Z,17.93
2018-06-04T04:18:49.257Z,18.83
2018-06-04T04:23:52.731Z,17.20
2018-06-04T04:28:55.878Z,15.60
2018-06-04T04:33:59.082Z,14.63
2018-06-04T04:39:02.336Z,12.83
2018-06-04T04:44:05.531Z,15.47
2018-06-04T04:49:08.671Z,15.37
2018-06-04T04:54:11.805Z,15.47
2018-06-04T04:59:16.185Z,15.67
2018-06-04T05:04:19.579Z,16.15
2018-06-04T05:09:22.749Z,16.02
2018-06-04T05:14:26.532Z,17.70
2018-06-04T05:19:29.665Z,18.80
2018-06-04T05:24:33.066Z,18.00
2018-06-04T05:29:36.094Z,16.42
2018-06-04T05:34:39.249Z,17.90
2018-06-04T05:39:42.977Z,18.27
2018-06-04T05:44:46.278Z,18.73
2018-06-04T05:49:49.565Z,18.85
2018-06-04T05:54:53.063Z,19.80
2018-06-04T05:59:56.292Z,20.48
2018-06-04T06:04:59.422Z,19.32
2018-06-04T06:10:02.582Z,18.42
2018-06-04T06:15:05.748Z,19.50
2018-06-04T06:20:08.908Z,17.20
2018-06-04T06:25:12.053Z,16.37
2018-06-04T06:30:15.332Z,16.60
2018-06-04T06:35:18.696Z,16.05
2018-06-04T06:40:22.155Z,16.95
2018-06-04T06:45:25.285Z,16.85
2018-06-04T06:50:28.484Z,16.60
2018-06-04T06:55:31.617Z,16.90
2018-06-04T07:00:34.713Z,15.80
2018-06-04T07:05:37.870Z,15.05
2018-06-04T07:10:41.016Z,14.87
2018-06-04T07:15:44.332Z,13.10
2018-06-04T07:20:47.746Z,13.78
2018-06-04T07:25:50.920Z,13.53
2018-06-04T07:30:54.136Z,15.38
2018-06-04T07:36:06.842Z,12.30
2018-06-04T07:41:09.990Z,14.63
2018-06-04T07:46:13.159Z,13.10
2018-06-04T07:51:16.467Z,14.38
2018-06-04T07:56:19.717Z,12.98
2018-06-04T08:01:23.110Z,13.60
2018-06-04T08:06:26.839Z,14.40
2018-06-04T08:11:30.025Z,14.35
2018-06-04T08:16:33.260Z,13.13
2018-06-04T08:21:36.341Z,14.47
2018-06-04T08:26:39.506Z,15.23
2018-06-04T08:31:42.771Z,14.68
2018-06-04T08:36:46.055Z,13.40
2018-06-04T08:41:52.873Z,12.30
2018-06-04T08:46:56.879Z,13.70
2018-06-04T08:52:00.329Z,14.85
2018-06-04T08:57:03.444Z,12.55
2018-06-04T09:02:06.588Z,12.88
2018-06-04T09:07:09.782Z,13.15
2018-06-04T09:12:12.934Z,13.65
2018-06-04T09:17:16.145Z,11.08
2018-06-04T09:22:19.336Z,13.98
2018-06-04T09:27:22.595Z,13.93
2018-06-04T09:32:25.761Z,13.43
2018-06-04T09:37:28.893Z,12.98
2018-06-04T09:42:32.051Z,12.53
2018-06-04T09:47:35.154Z,13.45
2018-06-04T09:52:38.254Z,12.93
2018-06-04T09:57:41.364Z,15.07
2018-06-04T10:02:44.572Z,14.00
2018-06-04T10:07:47.905Z,14.87
2018-06-04T10:12:51.232Z,12.73
2018-06-04T10:17:54.461Z,11.13
2018-06-04T10:22:57.593Z,9.70
2018-06-04T10:28:00.671Z,10.00
2018-06-04T10:33:04.017Z,12.00
2018-06-04T10:38:07.125Z,10.70
2018-06-04T10:43:10.317Z,10.43
2018-06-04T10:48:13.480Z,10.67
2018-06-04T10:53:16.793Z,10.20
2018-06-04T10:58:20.016Z,9.80
2018-06-04T11:03:23.329Z,9.83
2018-06-04T11:08:26.428Z,8.13
2018-06-04T11:13:29.512Z,9.40
2018-06-04T11:18:32.710Z,12.73
2018-06-04T11:23:35.808Z,9.83
2018-06-04T11:28:39.041Z,10.00
2018-06-04T11:33:42.361Z,12.17
2018-06-04T11:38:45.756Z,12.97
2018-06-04T11:43:48.954Z,10.73
2018-06-04T11:48:52.331Z,9.77
2018-06-04T11:53:55.459Z,10.90
2018-06-04T11:58:58.842Z,10.50
2018-06-04T12:04:01.942Z,10.93
2018-06-04T12:09:06.989Z,10.70
2018-06-04T12:14:10.131Z,9.87
2018-06-04T12:19:13.340Z,8.33
2018-06-04T12:24:16.656Z,7.73
2018-06-04T12:29:19.892Z,8.30
2018-06-04T12:34:23.137Z,10.10
2018-06-04T12:39:26.317Z,10.50
2018-06-04T12:44:29.500Z,8.37
2018-06-04T12:49:32.859Z,7.90
2018-06-04T12:54:36.691Z,7.97
2018-06-04T12:59:40.783Z,6.93
2018-06-04T13:04:44.085Z,8.03
2018-06-04T13:09:47.339Z,6.80
2018-06-04T13:14:50.677Z,8.23
2018-06-04T13:19:53.922Z,8.83
2018-06-04T13:24:57.037Z,8.30
2018-06-04T13:30:00.167Z,7.90
2018-06-04T13:35:03.359Z,8.50
2018-06-04T13:40:06.481Z,9.00
2018-06-04T13:45:09.582Z,8.97
2018-06-04T13:50:12.751Z,8.73
2018-06-04T13:55:15.963Z,7.87
2018-06-04T14:00:19.457Z,8.73
2018-06-04T14:05:22.644Z,8.30
2018-06-04T14:10:25.784Z,8.47
2018-06-04T14:15:28.980Z,9.27
2018-06-04T14:20:32.096Z,9.47
2018-06-04T14:25:35.211Z,8.90
2018-06-04T14:30:39.275Z,8.83
2018-06-04T14:35:42.419Z,8.30
2018-06-04T14:40:45.782Z,9.33
2018-06-04T14:45:50.036Z,8.90
2018-06-04T14:50:53.432Z,8.53
2018-06-04T14:55:56.604Z,8.00
2018-06-04T15:01:00.718Z,7.47
2018-06-04T15:06:03.887Z,8.00
2018-06-04T15:11:06.987Z,7.07
2018-06-04T15:16:10.170Z,7.40
2018-06-04T15:21:13.407Z,6.97
2018-06-04T15:26:16.703Z,7.43
2018-06-04T15:31:19.949Z,7.60
2018-06-04T15:36:23.372Z,7.27
2018-06-04T15:41:26.701Z,7.77
2018-06-04T15:46:29.857Z,7.77
2018-06-04T15:51:33.693Z,8.53
2018-06-04T15:56:36.857Z,8.50
2018-06-04T16:01:40.000Z,9.47
2018-06-04T16:06:43.254Z,8.50
2018-06-04T16:11:46.574Z,8.17
2018-06-04T16:16:49.984Z,7.73
2018-06-04T16:21:53.559Z,8.30
2018-06-04T16:26:56.705Z,8.77
2018-06-04T16:31:59.929Z,8.17
2018-06-04T16:37:03.155Z,9.17
2018-06-04T16:42:06.261Z,9.50
2018-06-04T16:47:09.366Z,9.13
2018-06-04T16:52:12.973Z,8.87
2018-06-04T16:57:17.103Z,9.00
2018-06-04T17:02:20.723Z,8.63
2018-06-04T17:07:25.545Z,8.03
2018-06-04T17:12:28.790Z,7.87
2018-06-04T17:17:32.525Z,6.83
2018-06-04T17:22:36.022Z,6.73
2018-06-04T17:27:39.220Z,7.37
2018-06-04T17:32:42.407Z,6.50
2018-06-04T17:37:45.852Z,6.37
2018-06-04T17:42:49.441Z,5.47
2018-06-04T17:47:53.507Z,6.07
2018-06-04T17:52:56.686Z,6.03
2018-06-04T17:57:59.934Z,6.13
2018-06-04T18:03:04.936Z,6.17
2018-06-04T18:08:08.136Z,5.80
2018-06-04T18:13:11.408Z,5.77
2018-06-04T18:18:15.300Z,4.90
2018-06-04T18:23:18.923Z,6.20
2018-06-04T18:28:22.350Z,5.43
2018-06-04T18:33:28.570Z,5.10
2018-06-04T18:38:32.436Z,5.47
2018-06-04T18:43:35.940Z,5.93
2018-06-04T18:48:39.089Z,5.77
2018-06-04T18:53:56.840Z,5.63
2018-06-04T18:59:03.545Z,5.93
2018-06-04T19:04:10.808Z,5.53
2018-06-04T19:09:16.502Z,6.70
2018-06-04T19:14:19.705Z,7.40
2018-06-04T19:19:22.839Z,7.83
2018-06-04T19:24:29.691Z,7.63
2018-06-04T19:29:32.922Z,8.77
2018-06-04T19:34:39.929Z,10.20
2018-06-04T19:39:43.591Z,11.77
2018-06-04T19:44:46.952Z,11.63
2018-06-04T19:49:50.852Z,14.73
2018-06-04T19:54:55.167Z,13.80
2018-06-04T19:59:58.475Z,14.93
2018-06-04T20:05:01.658Z,15.97
2018-06-04T20:10:04.941Z,16.43
2018-06-04T20:15:08.015Z,17.90
2018-06-04T20:20:11.280Z,17.93
2018-06-04T20:25:14.599Z,17.77
2018-06-04T20:30:17.948Z,18.53
2018-06-04T20:35:21.240Z,19.13
2018-06-04T20:40:24.546Z,19.03
2018-06-04T20:45:27.655Z,19.67
2018-06-04T20:50:30.754Z,19.80
2018-06-04T20:55:33.872Z,19.93
2018-06-04T21:00:37.053Z,20.20
2018-06-04T21:05:41.326Z,18.57
2018-06-04T21:10:44.680Z,19.77
2018-06-04T21:15:47.875Z,18.80
2018-06-04T21:20:51.092Z,18.27
2018-06-04T21:25:54.313Z,18.50
2018-06-04T21:30:57.465Z,19.47
2018-06-04T21:36:00.563Z,19.53
2018-06-04T21:41:03.753Z,19.23
2018-06-04T21:46:06.875Z,19.27
2018-06-04T21:51:10.062Z,20.40
2018-06-04T21:56:13.188Z,20.90
2018-06-04T22:01:16.432Z,19.67
2018-06-04T22:06:19.768Z,20.73
2018-06-04T22:11:23.763Z,22.00
2018-06-04T22:16:29.545Z,21.07
2018-06-04T22:21:32.694Z,22.30
2018-06-04T22:26:35.852Z,21.40
2018-06-04T22:31:39.444Z,21.30
2018-06-04T22:36:42.833Z,22.70
2018-06-04T22:41:49.350Z,21.10
2018-06-04T22:46:52.516Z,24.93
2018-06-04T22:51:55.696Z,23.90
2018-06-04T22:56:58.837Z,25.53
2018-06-04T23:02:01.983Z,23.77
2018-06-04T23:07:05.267Z,24.30
2018-06-04T23:12:09.035Z,25.83
2018-06-04T23:17:12.375Z,26.40
2018-06-04T23:22:15.627Z,28.13
2018-06-04T23:27:18.763Z,29.37
2018-06-04T23:32:22.735Z,29.97
2018-06-04T23:37:25.873Z,30.97
2018-06-04T23:42:29.091Z,30.27
2018-06-04T23:47:32.220Z,33.17
2018-06-04T23:52:36.007Z,30.03
2018-06-04T23:57:39.468Z,29.53
